<?xml version="1.0" encoding="UTF-8" standalone="no" ?>
<gpx xmlns="http://www.topografix.com/GPX/1/1" xmlns:xsi="http://www.w3.org/2001/XMLSchema-instance" xsi:schemaLocation="http://www.topografix.com/GPX/1/1 http://www.topografix.com/GPX/1/1/gpx.xsd" version="1.1" creator="VisuGPX - https://www.visugpx.com">
  <metadata>
    <name>Transcaucasie: Géorgie + Arménie</name>
  </metadata>
  <trk>
    <name><![CDATA[Tour d'Europe: étape 461]]></name>
    <extensions>
      <line xmlns="http://www.topografix.com/GPX/gpx_style/0/2">
        <color>FF0000</color>
        <width>4</width>
      </line>
    </extensions>
    <trkseg>
      <trkpt lat="41.60318" lon="44.06177">
        <ele>1558.018282</ele>
        <time>2021-10-02T07:19:28.216Z</time>
      </trkpt>
      <trkpt lat="41.60267" lon="44.06243">
        <ele>1558.00581</ele>
        <time>2021-10-02T07:20:04.203Z</time>
      </trkpt>
      <trkpt lat="41.60251" lon="44.06534">
        <ele>1554.564159</ele>
        <time>2021-10-02T07:20:59.210Z</time>
      </trkpt>
      <trkpt lat="41.60244" lon="44.0683">
        <ele>1556.892693</ele>
        <time>2021-10-02T07:22:14.211Z</time>
      </trkpt>
      <trkpt lat="41.60199" lon="44.07099">
        <ele>1560.47735</ele>
        <time>2021-10-02T07:23:16.223Z</time>
      </trkpt>
      <trkpt lat="41.60099" lon="44.07332">
        <ele>1565.244862</ele>
        <time>2021-10-02T07:24:24.209Z</time>
      </trkpt>
      <trkpt lat="41.59906" lon="44.07456">
        <ele>1566.007894</ele>
        <time>2021-10-02T07:25:40.207Z</time>
      </trkpt>
      <trkpt lat="41.59737" lon="44.07624">
        <ele>1553.124512</ele>
        <time>2021-10-02T07:26:26.204Z</time>
      </trkpt>
      <trkpt lat="41.59804" lon="44.08001">
        <ele>1537.182267</ele>
        <time>2021-10-02T07:27:08.213Z</time>
      </trkpt>
      <trkpt lat="41.59863" lon="44.08348">
        <ele>1522.342739</ele>
        <time>2021-10-02T07:27:48.204Z</time>
      </trkpt>
      <trkpt lat="41.59933" lon="44.08743">
        <ele>1496.039064</ele>
        <time>2021-10-02T07:28:30.194Z</time>
      </trkpt>
      <trkpt lat="41.5999" lon="44.09091">
        <ele>1489.417762</ele>
        <time>2021-10-02T07:29:18.210Z</time>
      </trkpt>
      <trkpt lat="41.60043" lon="44.09384">
        <ele>1489.910536</ele>
        <time>2021-10-02T07:30:19.226Z</time>
      </trkpt>
      <trkpt lat="41.60094" lon="44.09691">
        <ele>1484.030635</ele>
        <time>2021-10-02T07:31:11.226Z</time>
      </trkpt>
      <trkpt lat="41.60142" lon="44.09965">
        <ele>1483.348712</ele>
        <time>2021-10-02T07:31:54.210Z</time>
      </trkpt>
      <trkpt lat="41.60183" lon="44.10249">
        <ele>1481.21197</ele>
        <time>2021-10-02T07:32:38.220Z</time>
      </trkpt>
      <trkpt lat="41.60212" lon="44.10529">
        <ele>1484.831436</ele>
        <time>2021-10-02T07:33:37.215Z</time>
      </trkpt>
      <trkpt lat="41.60402" lon="44.10582">
        <ele>1493.836689</ele>
        <time>2021-10-02T07:35:12.220Z</time>
      </trkpt>
      <trkpt lat="41.60495" lon="44.10825">
        <ele>1513.812202</ele>
        <time>2021-10-02T07:37:42.206Z</time>
      </trkpt>
      <trkpt lat="41.60547" lon="44.11069">
        <ele>1524.090003</ele>
        <time>2021-10-02T07:39:52.223Z</time>
      </trkpt>
      <trkpt lat="41.60628" lon="44.11313">
        <ele>1537.738216</ele>
        <time>2021-10-02T07:42:04.207Z</time>
      </trkpt>
      <trkpt lat="41.60763" lon="44.11515">
        <ele>1552.194754</ele>
        <time>2021-10-02T07:44:49.217Z</time>
      </trkpt>
      <trkpt lat="41.60809" lon="44.11761">
        <ele>1563.06963</ele>
        <time>2021-10-02T07:46:59.228Z</time>
      </trkpt>
      <trkpt lat="41.60935" lon="44.11974">
        <ele>1580.395017</ele>
        <time>2021-10-02T07:49:25.247Z</time>
      </trkpt>
      <trkpt lat="41.61059" lon="44.12173">
        <ele>1593.891841</ele>
        <time>2021-10-02T07:51:47.224Z</time>
      </trkpt>
      <trkpt lat="41.612" lon="44.12374">
        <ele>1604.793919</ele>
        <time>2021-10-02T07:53:39.223Z</time>
      </trkpt>
      <trkpt lat="41.61344" lon="44.12562">
        <ele>1608.479356</ele>
        <time>2021-10-02T07:55:18.238Z</time>
      </trkpt>
      <trkpt lat="41.61469" lon="44.12763">
        <ele>1614.993633</ele>
        <time>2021-10-02T07:56:55.204Z</time>
      </trkpt>
      <trkpt lat="41.61572" lon="44.1301">
        <ele>1620.919747</ele>
        <time>2021-10-02T07:58:37.217Z</time>
      </trkpt>
      <trkpt lat="41.61664" lon="44.13238">
        <ele>1628.95816</ele>
        <time>2021-10-02T08:00:20.222Z</time>
      </trkpt>
      <trkpt lat="41.61769" lon="44.13495">
        <ele>1630.109154</ele>
        <time>2021-10-02T08:01:33.214Z</time>
      </trkpt>
      <trkpt lat="41.61889" lon="44.13869">
        <ele>1617.728072</ele>
        <time>2021-10-02T08:02:15.255Z</time>
      </trkpt>
      <trkpt lat="41.62001" lon="44.14131">
        <ele>1607.697401</ele>
        <time>2021-10-02T08:03:02.231Z</time>
      </trkpt>
      <trkpt lat="41.62197" lon="44.14255">
        <ele>1611.875444</ele>
        <time>2021-10-02T08:04:05.250Z</time>
      </trkpt>
      <trkpt lat="41.62391" lon="44.14356">
        <ele>1619.534865</ele>
        <time>2021-10-02T08:05:55.205Z</time>
      </trkpt>
      <trkpt lat="41.62576" lon="44.14472">
        <ele>1621.833709</ele>
        <time>2021-10-02T08:07:18.223Z</time>
      </trkpt>
      <trkpt lat="41.6279" lon="44.14648">
        <ele>1612.547183</ele>
        <time>2021-10-02T08:08:01.255Z</time>
      </trkpt>
      <trkpt lat="41.63041" lon="44.14855">
        <ele>1590.672616</ele>
        <time>2021-10-02T08:08:41.229Z</time>
      </trkpt>
      <trkpt lat="41.63264" lon="44.15126">
        <ele>1573.853811</ele>
        <time>2021-10-02T08:09:23.227Z</time>
      </trkpt>
      <trkpt lat="41.63485" lon="44.15427">
        <ele>1564.677009</ele>
        <time>2021-10-02T08:10:05.251Z</time>
      </trkpt>
      <trkpt lat="41.6361" lon="44.15679">
        <ele>1566.328186</ele>
        <time>2021-10-02T08:10:48.275Z</time>
      </trkpt>
      <trkpt lat="41.63732" lon="44.15976">
        <ele>1560.898138</ele>
        <time>2021-10-02T08:11:35.234Z</time>
      </trkpt>
      <trkpt lat="41.63925" lon="44.16216">
        <ele>1559.351033</ele>
        <time>2021-10-02T08:12:18.220Z</time>
      </trkpt>
      <trkpt lat="41.6398" lon="44.16477">
        <ele>1581.205708</ele>
        <time>2021-10-02T08:14:34.237Z</time>
      </trkpt>
      <trkpt lat="41.63991" lon="44.16745">
        <ele>1588.230144</ele>
        <time>2021-10-02T08:16:48.224Z</time>
      </trkpt>
      <trkpt lat="41.64013" lon="44.17003">
        <ele>1601.752573</ele>
        <time>2021-10-02T08:18:36.239Z</time>
      </trkpt>
      <trkpt lat="41.6405" lon="44.17279">
        <ele>1607.224442</ele>
        <time>2021-10-02T08:20:29.223Z</time>
      </trkpt>
      <trkpt lat="41.64053" lon="44.17563">
        <ele>1614.170903</ele>
        <time>2021-10-02T08:21:53.240Z</time>
      </trkpt>
      <trkpt lat="41.64037" lon="44.17843">
        <ele>1618.441087</ele>
        <time>2021-10-02T08:23:13.269Z</time>
      </trkpt>
      <trkpt lat="41.64093" lon="44.18108">
        <ele>1621.018782</ele>
        <time>2021-10-02T08:24:53.240Z</time>
      </trkpt>
      <trkpt lat="41.64197" lon="44.18335">
        <ele>1629.022142</ele>
        <time>2021-10-02T08:26:49.262Z</time>
      </trkpt>
      <trkpt lat="41.64298" lon="44.18583">
        <ele>1637.621107</ele>
        <time>2021-10-02T08:28:41.240Z</time>
      </trkpt>
      <trkpt lat="41.64392" lon="44.18851">
        <ele>1640.131086</ele>
        <time>2021-10-02T08:30:00.227Z</time>
      </trkpt>
      <trkpt lat="41.64465" lon="44.19107">
        <ele>1637.733361</ele>
        <time>2021-10-02T08:31:09.239Z</time>
      </trkpt>
      <trkpt lat="41.64535" lon="44.19402">
        <ele>1635.658768</ele>
        <time>2021-10-02T08:32:12.224Z</time>
      </trkpt>
      <trkpt lat="41.64583" lon="44.19662">
        <ele>1634.599464</ele>
        <time>2021-10-02T08:32:56.238Z</time>
      </trkpt>
      <trkpt lat="41.64624" lon="44.1996">
        <ele>1639.610021</ele>
        <time>2021-10-02T08:33:45.225Z</time>
      </trkpt>
      <trkpt lat="41.64673" lon="44.20258">
        <ele>1632.695337</ele>
        <time>2021-10-02T08:34:27.229Z</time>
      </trkpt>
      <trkpt lat="41.6472" lon="44.20548">
        <ele>1628.10888</ele>
        <time>2021-10-02T08:35:18.222Z</time>
      </trkpt>
      <trkpt lat="41.64763" lon="44.20869">
        <ele>1630.934697</ele>
        <time>2021-10-02T08:36:21.248Z</time>
      </trkpt>
      <trkpt lat="41.64791" lon="44.2114">
        <ele>1626.307297</ele>
        <time>2021-10-02T08:37:27.235Z</time>
      </trkpt>
      <trkpt lat="41.64822" lon="44.2142">
        <ele>1627.77735</ele>
        <time>2021-10-02T08:38:30.220Z</time>
      </trkpt>
      <trkpt lat="41.64862" lon="44.21726">
        <ele>1628.405805</ele>
        <time>2021-10-02T08:39:33.238Z</time>
      </trkpt>
      <trkpt lat="41.64911" lon="44.22013">
        <ele>1623.343412</ele>
        <time>2021-10-02T08:40:16.229Z</time>
      </trkpt>
      <trkpt lat="41.64968" lon="44.2231">
        <ele>1618.738794</ele>
        <time>2021-10-02T08:41:06.224Z</time>
      </trkpt>
      <trkpt lat="41.65038" lon="44.22598">
        <ele>1617.061374</ele>
        <time>2021-10-02T08:41:51.245Z</time>
      </trkpt>
      <trkpt lat="41.65123" lon="44.22842">
        <ele>1618.567394</ele>
        <time>2021-10-02T08:42:51.237Z</time>
      </trkpt>
      <trkpt lat="41.65236" lon="44.23078">
        <ele>1618.005772</ele>
        <time>2021-10-02T08:43:54.248Z</time>
      </trkpt>
      <trkpt lat="41.65336" lon="44.23351">
        <ele>1620.613184</ele>
        <time>2021-10-02T08:44:48.249Z</time>
      </trkpt>
      <trkpt lat="41.65392" lon="44.2366">
        <ele>1626.409727</ele>
        <time>2021-10-02T08:45:51.242Z</time>
      </trkpt>
      <trkpt lat="41.6542" lon="44.23953">
        <ele>1630.757789</ele>
        <time>2021-10-02T08:46:54.242Z</time>
      </trkpt>
      <trkpt lat="41.65446" lon="44.24221">
        <ele>1630.076101</ele>
        <time>2021-10-02T08:47:57.220Z</time>
      </trkpt>
      <trkpt lat="41.65474" lon="44.24493">
        <ele>1632.026591</ele>
        <time>2021-10-02T08:49:02.245Z</time>
      </trkpt>
      <trkpt lat="41.65495" lon="44.24785">
        <ele>1636.315831</ele>
        <time>2021-10-02T08:50:15.239Z</time>
      </trkpt>
      <trkpt lat="41.65499" lon="44.25051">
        <ele>1635.851288</ele>
        <time>2021-10-02T08:51:20.234Z</time>
      </trkpt>
      <trkpt lat="41.65467" lon="44.2535">
        <ele>1636.844329</ele>
        <time>2021-10-02T08:52:36.236Z</time>
      </trkpt>
      <trkpt lat="41.65424" lon="44.25622">
        <ele>1638.707181</ele>
        <time>2021-10-02T08:53:36.254Z</time>
      </trkpt>
      <trkpt lat="41.65384" lon="44.25895">
        <ele>1646.202443</ele>
        <time>2021-10-02T08:54:47.278Z</time>
      </trkpt>
      <trkpt lat="41.6536" lon="44.26181">
        <ele>1651.332014</ele>
        <time>2021-10-02T08:56:00.244Z</time>
      </trkpt>
      <trkpt lat="41.65335" lon="44.26464">
        <ele>1650.705569</ele>
        <time>2021-10-02T08:56:59.256Z</time>
      </trkpt>
      <trkpt lat="41.65425" lon="44.2676">
        <ele>1644.27121</ele>
        <time>2021-10-02T08:58:00.251Z</time>
      </trkpt>
      <trkpt lat="41.6555" lon="44.27003">
        <ele>1643.558576</ele>
        <time>2021-10-02T08:58:49.249Z</time>
      </trkpt>
      <trkpt lat="41.65673" lon="44.27248">
        <ele>1646.638438</ele>
        <time>2021-10-02T08:59:57.230Z</time>
      </trkpt>
      <trkpt lat="41.65786" lon="44.275">
        <ele>1650.519904</ele>
        <time>2021-10-02T09:01:26.239Z</time>
      </trkpt>
      <trkpt lat="41.65881" lon="44.27739">
        <ele>1652.451933</ele>
        <time>2021-10-02T09:02:33.244Z</time>
      </trkpt>
      <trkpt lat="41.66037" lon="44.27963">
        <ele>1650.411985</ele>
        <time>2021-10-02T09:03:28.272Z</time>
      </trkpt>
      <trkpt lat="41.66084" lon="44.28336">
        <ele>1644.936448</ele>
        <time>2021-10-02T09:04:08.234Z</time>
      </trkpt>
      <trkpt lat="41.6607" lon="44.28735">
        <ele>1626.839107</ele>
        <time>2021-10-02T09:04:50.247Z</time>
      </trkpt>
      <trkpt lat="41.6606" lon="44.29081">
        <ele>1601.950268</ele>
        <time>2021-10-02T09:05:32.255Z</time>
      </trkpt>
      <trkpt lat="41.66147" lon="44.29324">
        <ele>1592.585013</ele>
        <time>2021-10-02T09:06:13.242Z</time>
      </trkpt>
      <trkpt lat="41.66167" lon="44.29606">
        <ele>1589.527326</ele>
        <time>2021-10-02T09:06:59.239Z</time>
      </trkpt>
      <trkpt lat="41.66356" lon="44.29795">
        <ele>1583.34374</ele>
        <time>2021-10-02T09:07:41.253Z</time>
      </trkpt>
      <trkpt lat="41.66495" lon="44.30007">
        <ele>1573.967301</ele>
        <time>2021-10-02T09:08:26.239Z</time>
      </trkpt>
      <trkpt lat="41.66545" lon="44.30308">
        <ele>1563.256115</ele>
        <time>2021-10-02T09:09:19.243Z</time>
      </trkpt>
      <trkpt lat="41.66545" lon="44.30582">
        <ele>1561.312623</ele>
        <time>2021-10-02T09:10:15.247Z</time>
      </trkpt>
      <trkpt lat="41.6666" lon="44.30898">
        <ele>1549.423694</ele>
        <time>2021-10-02T09:10:57.254Z</time>
      </trkpt>
      <trkpt lat="41.66689" lon="44.31253">
        <ele>1531.622359</ele>
        <time>2021-10-02T09:11:39.237Z</time>
      </trkpt>
      <trkpt lat="41.66814" lon="44.31518">
        <ele>1517.885364</ele>
        <time>2021-10-02T09:12:19.249Z</time>
      </trkpt>
      <trkpt lat="41.66858" lon="44.31801">
        <ele>1513.091167</ele>
        <time>2021-10-02T09:13:12.257Z</time>
      </trkpt>
      <trkpt lat="41.66939" lon="44.3209">
        <ele>1504.764138</ele>
        <time>2021-10-02T09:13:52.250Z</time>
      </trkpt>
      <trkpt lat="41.66851" lon="44.32332">
        <ele>1504.876765</ele>
        <time>2021-10-02T09:14:45.243Z</time>
      </trkpt>
      <trkpt lat="41.66864" lon="44.3266">
        <ele>1496.408151</ele>
        <time>2021-10-02T09:15:27.252Z</time>
      </trkpt>
      <trkpt lat="41.6683" lon="44.32941">
        <ele>1486.407944</ele>
        <time>2021-10-02T09:16:07.265Z</time>
      </trkpt>
      <trkpt lat="41.66838" lon="44.33246">
        <ele>1472.67207</ele>
        <time>2021-10-02T09:16:51.248Z</time>
      </trkpt>
      <trkpt lat="41.66945" lon="44.33513">
        <ele>1459.390854</ele>
        <time>2021-10-02T09:17:37.247Z</time>
      </trkpt>
      <trkpt lat="41.67113" lon="44.33617">
        <ele>1439.025905</ele>
        <time>2021-10-02T09:18:18.279Z</time>
      </trkpt>
      <trkpt lat="41.67288" lon="44.33444">
        <ele>1439.22793</ele>
        <time>2021-10-02T09:19:02.249Z</time>
      </trkpt>
      <trkpt lat="41.67313" lon="44.33692">
        <ele>1433.760064</ele>
        <time>2021-10-02T09:20:11.261Z</time>
      </trkpt>
      <trkpt lat="41.67345" lon="44.33965">
        <ele>1424.482103</ele>
        <time>2021-10-02T09:20:57.240Z</time>
      </trkpt>
      <trkpt lat="41.67462" lon="44.34226">
        <ele>1410.03075</ele>
        <time>2021-10-02T09:21:39.266Z</time>
      </trkpt>
      <trkpt lat="41.67613" lon="44.34342">
        <ele>1400.831939</ele>
        <time>2021-10-02T09:22:20.250Z</time>
      </trkpt>
      <trkpt lat="41.67612" lon="44.34698">
        <ele>1384.024174</ele>
        <time>2021-10-02T09:23:02.253Z</time>
      </trkpt>
      <trkpt lat="41.67753" lon="44.34933">
        <ele>1368.31131</ele>
        <time>2021-10-02T09:23:42.250Z</time>
      </trkpt>
      <trkpt lat="41.67611" lon="44.35237">
        <ele>1350.488746</ele>
        <time>2021-10-02T09:24:24.250Z</time>
      </trkpt>
      <trkpt lat="41.67445" lon="44.35538">
        <ele>1327.56068</ele>
        <time>2021-10-02T09:25:06.243Z</time>
      </trkpt>
      <trkpt lat="41.67287" lon="44.3589">
        <ele>1313.118659</ele>
        <time>2021-10-02T09:25:46.284Z</time>
      </trkpt>
      <trkpt lat="41.6716" lon="44.36167">
        <ele>1304.417825</ele>
        <time>2021-10-02T09:26:28.260Z</time>
      </trkpt>
      <trkpt lat="41.67002" lon="44.36433">
        <ele>1287.391437</ele>
        <time>2021-10-02T09:27:10.262Z</time>
      </trkpt>
      <trkpt lat="41.66926" lon="44.36729">
        <ele>1274.267405</ele>
        <time>2021-10-02T09:27:50.258Z</time>
      </trkpt>
      <trkpt lat="41.66768" lon="44.36919">
        <ele>1264.52147</ele>
        <time>2021-10-02T09:28:32.220Z</time>
      </trkpt>
      <trkpt lat="41.66682" lon="44.37213">
        <ele>1252.382038</ele>
        <time>2021-10-02T09:29:12.237Z</time>
      </trkpt>
      <trkpt lat="41.66563" lon="44.37508">
        <ele>1232.856142</ele>
        <time>2021-10-02T09:29:54.257Z</time>
      </trkpt>
      <trkpt lat="41.66466" lon="44.37791">
        <ele>1220.627735</ele>
        <time>2021-10-02T09:30:36.288Z</time>
      </trkpt>
      <trkpt lat="41.66531" lon="44.38086">
        <ele>1209.608952</ele>
        <time>2021-10-02T09:31:16.250Z</time>
      </trkpt>
      <trkpt lat="41.66497" lon="44.38408">
        <ele>1202.500428</ele>
        <time>2021-10-02T09:31:58.259Z</time>
      </trkpt>
      <trkpt lat="41.66554" lon="44.38684">
        <ele>1194.377212</ele>
        <time>2021-10-02T09:32:39.253Z</time>
      </trkpt>
      <trkpt lat="41.6671" lon="44.38463">
        <ele>1192.235177</ele>
        <time>2021-10-02T09:33:21.266Z</time>
      </trkpt>
      <trkpt lat="41.66849" lon="44.38228">
        <ele>1184.640908</ele>
        <time>2021-10-02T09:34:03.258Z</time>
      </trkpt>
      <trkpt lat="41.66991" lon="44.38013">
        <ele>1175.754788</ele>
        <time>2021-10-02T09:34:43.242Z</time>
      </trkpt>
      <trkpt lat="41.67122" lon="44.3789">
        <ele>1164.108731</ele>
        <time>2021-10-02T09:35:31.247Z</time>
      </trkpt>
      <trkpt lat="41.66979" lon="44.38133">
        <ele>1153.331655</ele>
        <time>2021-10-02T09:36:18.241Z</time>
      </trkpt>
      <trkpt lat="41.66891" lon="44.38398">
        <ele>1131.957147</ele>
        <time>2021-10-02T09:37:01.290Z</time>
      </trkpt>
      <trkpt lat="41.66751" lon="44.38622">
        <ele>1117.342948</ele>
        <time>2021-10-02T09:37:48.254Z</time>
      </trkpt>
      <trkpt lat="41.66876" lon="44.38564">
        <ele>1108.9999</ele>
        <time>2021-10-02T09:38:43.255Z</time>
      </trkpt>
      <trkpt lat="41.66997" lon="44.38401">
        <ele>1088.523209</ele>
        <time>2021-10-02T09:39:25.249Z</time>
      </trkpt>
      <trkpt lat="41.67206" lon="44.38287">
        <ele>1069.097842</ele>
        <time>2021-10-02T09:40:14.271Z</time>
      </trkpt>
      <trkpt lat="41.67385" lon="44.38037">
        <ele>1057.285229</ele>
        <time>2021-10-02T09:40:54.259Z</time>
      </trkpt>
      <trkpt lat="41.67549" lon="44.37836">
        <ele>1046.249124</ele>
        <time>2021-10-02T09:41:38.290Z</time>
      </trkpt>
      <trkpt lat="41.67624" lon="44.37994">
        <ele>1050.007615</ele>
        <time>2021-10-02T10:06:50.271Z</time>
      </trkpt>
      <trkpt lat="41.67659" lon="44.38221">
        <ele>1061.607797</ele>
        <time>2021-10-02T10:09:28.277Z</time>
      </trkpt>
      <trkpt lat="41.67604" lon="44.38471">
        <ele>1072.857437</ele>
        <time>2021-10-02T10:11:50.273Z</time>
      </trkpt>
      <trkpt lat="41.6767" lon="44.38437">
        <ele>1083.579968</ele>
        <time>2021-10-02T10:13:47.285Z</time>
      </trkpt>
      <trkpt lat="41.67787" lon="44.38241">
        <ele>1092.722962</ele>
        <time>2021-10-02T10:15:56.265Z</time>
      </trkpt>
      <trkpt lat="41.67761" lon="44.38282">
        <ele>1103.092942</ele>
        <time>2021-10-02T10:17:57.281Z</time>
      </trkpt>
      <trkpt lat="41.67734" lon="44.38506">
        <ele>1114.969706</ele>
        <time>2021-10-02T10:20:00.264Z</time>
      </trkpt>
      <trkpt lat="41.67866" lon="44.38689">
        <ele>1122.902789</ele>
        <time>2021-10-02T10:21:54.340Z</time>
      </trkpt>
      <trkpt lat="41.68043" lon="44.386">
        <ele>1138.970247</ele>
        <time>2021-10-02T10:23:44.282Z</time>
      </trkpt>
      <trkpt lat="41.68252" lon="44.38599">
        <ele>1146.341822</ele>
        <time>2021-10-02T10:25:44.276Z</time>
      </trkpt>
      <trkpt lat="41.68454" lon="44.38619">
        <ele>1147.042681</ele>
        <time>2021-10-02T10:27:27.265Z</time>
      </trkpt>
      <trkpt lat="41.68656" lon="44.38529">
        <ele>1149.155465</ele>
        <time>2021-10-02T10:28:17.263Z</time>
      </trkpt>
      <trkpt lat="41.68844" lon="44.38392">
        <ele>1157.659719</ele>
        <time>2021-10-02T10:29:49.270Z</time>
      </trkpt>
      <trkpt lat="41.69016" lon="44.38258">
        <ele>1166.200231</ele>
        <time>2021-10-02T10:31:22.275Z</time>
      </trkpt>
      <trkpt lat="41.69199" lon="44.38122">
        <ele>1173.81921</ele>
        <time>2021-10-02T10:32:49.265Z</time>
      </trkpt>
      <trkpt lat="41.69356" lon="44.38007">
        <ele>1171.179986</ele>
        <time>2021-10-02T10:33:59.307Z</time>
      </trkpt>
      <trkpt lat="41.69219" lon="44.38235">
        <ele>1168.417377</ele>
        <time>2021-10-02T10:35:00.298Z</time>
      </trkpt>
      <trkpt lat="41.6906" lon="44.3844">
        <ele>1169.67673</ele>
        <time>2021-10-02T10:36:04.263Z</time>
      </trkpt>
      <trkpt lat="41.69185" lon="44.38499">
        <ele>1180.340255</ele>
        <time>2021-10-02T10:37:37.299Z</time>
      </trkpt>
      <trkpt lat="41.69346" lon="44.38561">
        <ele>1194.861163</ele>
        <time>2021-10-02T10:39:44.264Z</time>
      </trkpt>
      <trkpt lat="41.69511" lon="44.38597">
        <ele>1198.862715</ele>
        <time>2021-10-02T10:41:35.254Z</time>
      </trkpt>
      <trkpt lat="41.69557" lon="44.38591">
        <ele>1198.862715</ele>
        <time>2021-10-02T10:57:33.321Z</time>
      </trkpt>
    </trkseg>
  </trk>
</gpx>